Time;durP1;ratioP1;P1;durP2;ratioP2;P2;SDS_P1;SDS_P2;PMS_P1;PMS_P2;Temp;Humidity;BMP_temperature;BMP_pressure;BME280_temperature;BME280_humidity;BME280_pressure;Samples;Min_cycle;Max_cycle;Signal;HPM_P1;HPM_P2
2022/06/06 00:02:13;;;;;;;;;;;;;;;;;;6208531;22;19916;-91
2022/06/06 00:04:40;;;;;;;;;;;;;;;;;;6212056;22;19986;-92
2022/06/06 00:07:07;;;;;;;;;;;;;;;;;;6214206;22;19915;-92
2022/06/06 00:09:35;;;;;;;;;;;;;;;;;;6211305;22;20334;-92
2022/06/06 00:12:02;;;;;;;;;;;;;;;;;;6214084;22;20329;-92
2022/06/06 00:14:28;;;;;;;;;;;;;;;;;;6212385;22;19923;-91
2022/06/06 00:16:56;;;;;;;;;;;;;;;;;;6213649;22;19923;-92
2022/06/06 00:19:22;;;;;;;;;;;;;;;;;;6240241;22;19925;-92
2022/06/06 00:21:48;;;;;;;;;;;;;;;;;;6211994;22;19919;-91
2022/06/06 00:24:20;;;;;;;;;;;;;;;;;;6238225;22;19969;-92
2022/06/06 00:27:01;;;;;;;;;;;;;;;;;;6172152;23;20385;-91
2022/06/06 00:29:28;;;;;;;;;;;;;;;;;;6142816;23;19952;-92
2022/06/06 00:34:52;;;;;;;;;;;;;;;;;;6170564;23;19979;-92
2022/06/06 00:37:23;;;;;;;;;;;;;;;;;;6173928;23;19920;-93
2022/06/06 00:39:49;;;;;;;;;;;;;;;;;;6172528;23;19971;-91
2022/06/06 00:42:15;;;;;;;;;;;;;;;;;;6147407;23;20333;-91
2022/06/06 00:44:41;;;;;;;;;;;;;;;;;;6144821;23;19947;-92
2022/06/06 00:47:07;;;;;;;;;;;;;;;;;;6173867;23;20031;-92
2022/06/06 00:49:34;;;;;;;;;;;;;;;;;;6148286;23;19956;-92
2022/06/06 00:52:01;;;;;;;;;;;;;;;;;;6150407;23;20249;-92
2022/06/06 00:54:29;;;;;;;;;;;;;;;;;;6143915;23;19925;-91
2022/06/06 00:56:55;;;;;;;;;;;;;;;;;;6150320;22;20401;-93
2022/06/06 00:59:23;;;;;;;;;;;;;;;;;;6213078;22;19923;-92
2022/06/06 01:01:50;;;;;;;;;;;;;;;;;;6213972;22;19998;-92
2022/06/06 01:04:16;;;;;;;;;;;;;;;;;;6201296;23;19927;-92
2022/06/06 01:06:45;;;;;;;;;;;;;;;;;;6202866;23;20945;-92
2022/06/06 01:09:11;;;;;;;;;;;;;;;;;;6230120;23;19926;-92
2022/06/06 01:11:41;;;;;;;;;;;;;;;;;;6231138;23;19928;-93
2022/06/06 01:14:09;;;;;;;;;;;;;;;;;;6209895;23;19916;-92
2022/06/06 01:16:36;;;;;;;;;;;;;;;;;;6207106;23;19923;-92
2022/06/06 01:19:03;;;;;;;;;;;;;;;;;;6234685;23;19916;-92
2022/06/06 01:21:34;;;;;;;;;;;;;;;;;;6233501;23;19920;-92
2022/06/06 01:24:00;;;;;;;;;;;;;;;;;;6233277;23;19959;-92
2022/06/06 01:26:27;;;;;;;;;;;;;;;;;;6207075;23;20359;-92
2022/06/06 01:28:53;;;;;;;;;;;;;;;;;;6209048;23;19916;-91
2022/06/06 01:31:23;;;;;;;;;;;;;;;;;;6235189;23;20252;-91
2022/06/06 01:33:51;;;;;;;;;;;;;;;;;;6207955;23;19919;-91
2022/06/06 01:36:18;;;;;;;;;;;;;;;;;;6232770;23;19930;-92
2022/06/06 01:38:44;;;;;;;;;;;;;;;;;;6208059;23;19941;-91
2022/06/06 01:41:10;;;;;;;;;;;;;;;;;;6234601;23;20019;-91
2022/06/06 01:43:37;;;;;;;;;;;;;;;;;;6205890;23;20252;-91
2022/06/06 01:46:03;;;;;;;;;;;;;;;;;;6234920;23;20325;-91
2022/06/06 01:48:29;;;;;;;;;;;;;;;;;;6209055;23;19942;-91
2022/06/06 01:50:56;;;;;;;;;;;;;;;;;;6236509;23;19920;-91
2022/06/06 01:53:22;;;;;;;;;;;;;;;;;;6207921;23;19920;-91
2022/06/06 01:55:48;;;;;;;;;;;;;;;;;;6206835;23;20316;-91
2022/06/06 01:58:14;;;;;;;;;;;;;;;;;;6235756;23;19946;-91
2022/06/06 02:00:41;;;;;;;;;;;;;;;;;;6230619;23;19951;-91
2022/06/06 02:03:08;;;;;;;;;;;;;;;;;;6128152;22;1806133;-91
2022/06/06 02:05:35;;;;;;;;;;;;;;;;;;6182070;23;20259;-92
2022/06/06 02:08:01;;;;;;;;;;;;;;;;;;6210235;23;19923;-91
2022/06/06 02:10:29;;;;;;;;;;;;;;;;;;6232293;23;19922;-92
2022/06/06 02:12:55;;;;;;;;;;;;;;;;;;6235314;23;19924;-91
2022/06/06 02:15:22;;;;;;;;;;;;;;;;;;6209325;23;19930;-91
2022/06/06 02:17:48;;;;;;;;;;;;;;;;;;6234773;23;19916;-90
2022/06/06 02:20:14;;;;;;;;;;;;;;;;;;6210407;23;19951;-92
2022/06/06 02:22:41;;;;;;;;;;;;;;;;;;6207216;23;19923;-91
2022/06/06 02:25:08;;;;;;;;;;;;;;;;;;6209967;23;19919;-91
2022/06/06 02:27:35;;;;;;;;;;;;;;;;;;6206910;23;19924;-92
2022/06/06 02:30:03;;;;;;;;;;;;;;;;;;6234258;23;20248;-92
2022/06/06 02:32:30;;;;;;;;;;;;;;;;;;6229894;23;20585;-91
2022/06/06 02:34:56;;;;;;;;;;;;;;;;;;6205624;23;19934;-91
2022/06/06 02:37:23;;;;;;;;;;;;;;;;;;6204772;23;19919;-92
2022/06/06 02:39:50;;;;;;;;;;;;;;;;;;6178794;23;19957;-90
2022/06/06 02:42:21;;;;;;;;;;;;;;;;;;6233812;23;19922;-91
2022/06/06 02:45:02;;;;;;;;;;;;;;;;;;6206116;23;19919;-91
2022/06/06 02:47:29;;;;;;;;;;;;;;;;;;6175301;23;20260;-92
2022/06/06 02:49:57;;;;;;;;;;;;;;;;;;6180124;23;19958;-92
2022/06/06 02:52:23;;;;;;;;;;;;;;;;;;6203973;23;19974;-92
2022/06/06 02:54:49;;;;;;;;;;;;;;;;;;6230304;23;19927;-92
2022/06/06 02:57:16;;;;;;;;;;;;;;;;;;6228192;23;19923;-92
2022/06/06 02:59:45;;;;;;;;;;;;;;;;;;6225756;23;19971;-92
2022/06/06 03:02:12;;;;;;;;;;;;;;;;;;6178135;23;19990;-93
2022/06/06 03:04:38;;;;;;;;;;;;;;;;;;6225529;23;20327;-94
2022/06/06 03:07:11;;;;;;;;;;;;;;;;;;6178166;23;19926;-94
2022/06/06 03:09:37;;;;;;;;;;;;;;;;;;6227016;23;19919;-94
2022/06/06 03:12:03;;;;;;;;;;;;;;;;;;6180205;23;19927;-92
2022/06/06 03:14:29;;;;;;;;;;;;;;;;;;6226560;23;19998;-93
2022/06/06 03:22:29;;;;;;;;;;;;;;;;;;6228117;23;19951;-93
2022/06/06 03:25:05;;;;;;;;;;;;;;;;;;6231049;23;20634;-93
2022/06/06 03:27:32;;;;;;;;;;;;;;;;;;6229028;23;19970;-93
2022/06/06 03:30:03;;;;;;;;;;;;;;;;;;6231878;23;19916;-92
2022/06/06 03:32:30;;;;;;;;;;;;;;;;;;6202187;23;20345;-92
2022/06/06 03:34:57;;;;;;;;;;;;;;;;;;6230397;23;20307;-92
2022/06/06 03:37:23;;;;;;;;;;;;;;;;;;6227982;23;19915;-94
2022/06/06 03:39:51;;;;;;;;;;;;;;;;;;6230190;23;19919;-93
2022/06/06 03:42:27;;;;;;;;;;;;;;;;;;6228579;23;19919;-92
2022/06/06 03:44:54;;;;;;;;;;;;;;;;;;6206508;23;19973;-93
2022/06/06 03:47:24;;;;;;;;;;;;;;;;;;6207738;23;19922;-92
2022/06/06 03:49:50;;;;;;;;;;;;;;;;;;6237091;23;20011;-94
2022/06/06 03:52:16;;;;;;;;;;;;;;;;;;6237702;23;20271;-92
2022/06/06 03:54:43;;;;;;;;;;;;;;;;;;6233993;23;20396;-92
2022/06/06 03:57:10;;;;;;;;;;;;;;;;;;6234364;23;19916;-93
2022/06/06 03:59:41;;;;;;;;;;;;;;;;;;6231586;23;19926;-92
2022/06/06 04:02:09;;;;;;;;;;;;;;;;;;6234335;23;19923;-93
2022/06/06 04:04:38;;;;;;;;;;;;;;;;;;6229961;23;19924;-92
2022/06/06 04:07:11;;;;;;;;;;;;;;;;;;6234254;23;19926;-93
2022/06/06 04:09:38;;;;;;;;;;;;;;;;;;6231374;23;19974;-94
2022/06/06 04:12:04;;;;;;;;;;;;;;;;;;6208704;23;20291;-93
2022/06/06 04:14:37;;;;;;;;;;;;;;;;;;6231098;23;20282;-93
2022/06/06 04:17:03;;;;;;;;;;;;;;;;;;6234864;23;19945;-91
2022/06/06 04:19:30;;;;;;;;;;;;;;;;;;6231860;23;19927;-92
2022/06/06 04:21:57;;;;;;;;;;;;;;;;;;6231247;23;19926;-92
2022/06/06 04:24:24;;;;;;;;;;;;;;;;;;6226767;23;19982;-93
2022/06/06 04:26:50;;;;;;;;;;;;;;;;;;6229161;23;19919;-91
2022/06/06 04:29:16;;;;;;;;;;;;;;;;;;6203667;23;19935;-91
2022/06/06 04:31:47;;;;;;;;;;;;;;;;;;6229445;23;19919;-91
2022/06/06 04:34:14;;;;;;;;;;;;;;;;;;6229966;23;19919;-91
2022/06/06 04:36:42;;;;;;;;;;;;;;;;;;6228910;23;19954;-92
2022/06/06 04:39:09;;;;;;;;;;;;;;;;;;6204837;23;19990;-91
2022/06/06 04:41:36;;;;;;;;;;;;;;;;;;6203870;23;19919;-91
2022/06/06 04:44:02;;;;;;;;;;;;;;;;;;6231553;23;19925;-92
2022/06/06 04:46:40;;;;;;;;;;;;;;;;;;6231262;23;19969;-91
2022/06/06 04:49:15;;;;;;;;;;;;;;;;;;6235752;22;20251;-91
2022/06/06 04:51:42;;;;;;;;;;;;;;;;;;6230870;23;20380;-91
2022/06/06 04:54:10;;;;;;;;;;;;;;;;;;6208568;23;19927;-91
2022/06/06 04:56:38;;;;;;;;;;;;;;;;;;6232398;23;19923;-90
2022/06/06 04:59:05;;;;;;;;;;;;;;;;;;6205949;23;19919;-92
2022/06/06 05:01:42;;;;;;;;;;;;;;;;;;6231370;22;19916;-90
2022/06/06 05:04:09;;;;;;;;;;;;;;;;;;6198270;22;20542;-90
2022/06/06 05:06:36;;;;;;;;;;;;;;;;;;6233820;22;19943;-91
2022/06/06 05:09:17;;;;;;;;;;;;;;;;;;6240592;22;19942;-92
2022/06/06 05:11:48;;;;;;;;;;;;;;;;;;6259578;22;20268;-92
2022/06/06 05:14:17;;;;;;;;;;;;;;;;;;6237165;22;20332;-92
2022/06/06 05:16:47;;;;;;;;;;;;;;;;;;6209648;22;19919;-92
2022/06/06 05:19:14;;;;;;;;;;;;;;;;;;6236378;22;20325;-92
2022/06/06 05:21:42;;;;;;;;;;;;;;;;;;6209281;22;19926;-93
2022/06/06 05:24:09;;;;;;;;;;;;;;;;;;6212129;22;19926;-92
2022/06/06 05:26:36;;;;;;;;;;;;;;;;;;6206974;22;19924;-92
2022/06/06 05:29:03;;;;;;;;;;;;;;;;;;6211016;22;19915;-91
2022/06/06 05:31:30;;;;;;;;;;;;;;;;;;6208212;22;20359;-92
2022/06/06 05:34:02;;;;;;;;;;;;;;;;;;6237280;22;19990;-93
2022/06/06 05:36:29;;;;;;;;;;;;;;;;;;6233928;22;19965;-92
2022/06/06 05:38:56;;;;;;;;;;;;;;;;;;6210434;22;20312;-92
2022/06/06 05:41:22;;;;;;;;;;;;;;;;;;6235625;22;19919;-92
2022/06/06 05:43:48;;;;;;;;;;;;;;;;;;6168230;23;19927;-91
2022/06/06 05:46:16;;;;;;;;;;;;;;;;;;6169985;23;20249;-92
2022/06/06 05:48:43;;;;;;;;;;;;;;;;;;6144492;23;20465;-91
2022/06/06 05:51:11;;;;;;;;;;;;;;;;;;6150743;23;19973;-92
2022/06/06 05:53:38;;;;;;;;;;;;;;;;;;6172253;23;19920;-91
2022/06/06 05:56:05;;;;;;;;;;;;;;;;;;6173239;23;19924;-92
2022/06/06 05:58:32;;;;;;;;;;;;;;;;;;6145984;23;20254;-91
2022/06/06 06:01:00;;;;;;;;;;;;;;;;;;6172964;23;19927;-91
2022/06/06 06:03:27;;;;;;;;;;;;;;;;;;6171021;23;19920;-91
2022/06/06 06:05:58;;;;;;;;;;;;;;;;;;6174238;23;19967;-91
2022/06/06 06:08:26;;;;;;;;;;;;;;;;;;6146053;23;19920;-91
2022/06/06 06:10:54;;;;;;;;;;;;;;;;;;6148689;23;20396;-90
2022/06/06 06:13:20;;;;;;;;;;;;;;;;;;6172106;23;19991;-91
2022/06/06 06:15:47;;;;;;;;;;;;;;;;;;6177488;23;19962;-91
2022/06/06 06:18:14;;;;;;;;;;;;;;;;;;6185386;23;20001;-90
2022/06/06 06:20:41;;;;;;;;;;;;;;;;;;6177594;23;20336;-90
2022/06/06 06:23:08;;;;;;;;;;;;;;;;;;6179595;23;19927;-91
2022/06/06 06:25:49;;;;;;;;;;;;;;;;;;6138167;23;19920;-90
2022/06/06 06:28:15;;;;;;;;;;;;;;;;;;6113934;23;19924;-91
2022/06/06 06:30:42;;;;;;;;;;;;;;;;;;6136577;23;20035;-90
2022/06/06 06:33:09;;;;;;;;;;;;;;;;;;6114549;23;19924;-90
2022/06/06 06:35:38;;;;;;;;;;;;;;;;;;6112454;23;19924;-91
2022/06/06 06:38:05;;;;;;;;;;;;;;;;;;6140098;23;20023;-91
2022/06/06 06:40:34;;;;;;;;;;;;;;;;;;6111692;23;19920;-91
2022/06/06 06:43:03;;;;;;;;;;;;;;;;;;6137760;23;19959;-91
2022/06/06 06:45:32;;;;;;;;;;;;;;;;;;6134951;23;19921;-90
2022/06/06 06:47:59;;;;;;;;;;;;;;;;;;6114200;23;20333;-90
2022/06/06 06:50:36;;;;;;;;;;;;;;;;;;6113529;23;19924;-90
2022/06/06 06:53:03;;;;;;;;;;;;;;;;;;6141255;23;20253;-90
2022/06/06 06:55:30;;;;;;;;;;;;;;;;;;6114674;23;19924;-90
2022/06/06 06:57:56;;;;;;;;;;;;;;;;;;6138542;23;20646;-91
2022/06/06 07:00:28;;;;;;;;;;;;;;;;;;6135979;23;20432;-89
2022/06/06 07:08:38;;;;;;;;;;;;;;;;;;6174999;23;20333;-90
2022/06/06 07:11:08;;;;;;;;;;;;;;;;;;6200407;23;20042;-90
2022/06/06 07:13:35;;;;;;;;;;;;;;;;;;6171417;23;19919;-88
2022/06/06 07:16:16;;;;;;;;;;;;;;;;;;6202515;23;20348;-90
2022/06/06 07:18:42;;;;;;;;;;;;;;;;;;6173535;23;19919;-90
2022/06/06 07:21:25;;;;;;;;;;;;;;;;;;6173952;23;19931;-90
2022/06/06 07:23:52;;;;;;;;;;;;;;;;;;6173719;23;19926;-90
2022/06/06 07:26:18;;;;;;;;;;;;;;;;;;6150140;23;20157;-90
2022/06/06 07:28:49;;;;;;;;;;;;;;;;;;6201336;23;19916;-90
2022/06/06 07:31:15;;;;;;;;;;;;;;;;;;6149925;23;20260;-90
2022/06/06 07:33:43;;;;;;;;;;;;;;;;;;6172807;23;19919;-91
2022/06/06 07:36:25;;;;;;;;;;;;;;;;;;6175107;23;20442;-90
2022/06/06 07:38:51;;;;;;;;;;;;;;;;;;6174925;23;19931;-90
2022/06/06 07:41:17;;;;;;;;;;;;;;;;;;6149114;23;19920;-90
2022/06/06 07:44:00;;;;;;;;;;;;;;;;;;6177945;23;19996;-90
2022/06/06 07:46:26;;;;;;;;;;;;;;;;;;6147720;23;19995;-89
2022/06/06 07:48:53;;;;;;;;;;;;;;;;;;6177319;23;19952;-90
2022/06/06 07:51:21;;;;;;;;;;;;;;;;;;6176754;23;19926;-90
2022/06/06 07:54:11;;;;;;;;;;;;;;;;;;6159656;23;19939;-91
2022/06/06 07:56:38;;;;;;;;;;;;;;;;;;6175171;23;19924;-91
2022/06/06 07:59:06;;;;;;;;;;;;;;;;;;6178887;23;19923;-91
2022/06/06 08:01:33;;;;;;;;;;;;;;;;;;6175553;23;20019;-91
2022/06/06 08:04:00;;;;;;;;;;;;;;;;;;6187019;23;19923;-90
2022/06/06 08:06:26;;;;;;;;;;;;;;;;;;6204318;23;20287;-91
2022/06/06 08:09:00;;;;;;;;;;;;;;;;;;6206998;23;19959;-91
2022/06/06 08:11:27;;;;;;;;;;;;;;;;;;6204973;23;19930;-91
2022/06/06 08:13:55;;;;;;;;;;;;;;;;;;6207263;23;19920;-90
2022/06/06 08:16:24;;;;;;;;;;;;;;;;;;6232498;23;19920;-91
2022/06/06 08:18:52;;;;;;;;;;;;;;;;;;6209592;23;19919;-91
2022/06/06 08:21:19;;;;;;;;;;;;;;;;;;6210521;23;19939;-91
2022/06/06 08:23:45;;;;;;;;;;;;;;;;;;6206672;23;20248;-92
2022/06/06 08:26:11;;;;;;;;;;;;;;;;;;6234763;23;19990;-91
2022/06/06 08:28:39;;;;;;;;;;;;;;;;;;6204931;23;19951;-92
2022/06/06 08:31:06;;;;;;;;;;;;;;;;;;6206839;23;20379;-92
2022/06/06 08:33:33;;;;;;;;;;;;;;;;;;6202208;23;19990;-92
2022/06/06 08:36:00;;;;;;;;;;;;;;;;;;6204596;23;19924;-93
2022/06/06 08:38:31;;;;;;;;;;;;;;;;;;6213972;23;19926;-92
2022/06/06 08:40:58;;;;;;;;;;;;;;;;;;6176637;23;19981;-92
2022/06/06 08:43:25;;;;;;;;;;;;;;;;;;6177111;23;19919;-91
2022/06/06 08:45:52;;;;;;;;;;;;;;;;;;6182014;23;20026;-93
2022/06/06 08:48:29;;;;;;;;;;;;;;;;;;6232345;23;19923;-93
2022/06/06 08:50:56;;;;;;;;;;;;;;;;;;6182229;23;19923;-91
2022/06/06 08:53:22;;;;;;;;;;;;;;;;;;6233998;23;19938;-92
2022/06/06 08:55:51;;;;;;;;;;;;;;;;;;6234180;23;19923;-93
2022/06/06 08:58:18;;;;;;;;;;;;;;;;;;6180210;23;19977;-92
2022/06/06 09:00:47;;;;;;;;;;;;;;;;;;6177952;23;19923;-92
2022/06/06 09:03:16;;;;;;;;;;;;;;;;;;6229290;23;19931;-91
2022/06/06 09:05:43;;;;;;;;;;;;;;;;;;6149074;23;20394;-91
2022/06/06 09:08:10;;;;;;;;;;;;;;;;;;6177365;23;19920;-91
2022/06/06 09:10:38;;;;;;;;;;;;;;;;;;6173174;23;20233;-91
2022/06/06 09:13:08;;;;;;;;;;;;;;;;;;6202242;23;19927;-91
2022/06/06 09:15:36;;;;;;;;;;;;;;;;;;6147693;23;20427;-91
2022/06/06 09:18:23;;;;;;;;;;;;;;;;;;6180433;23;19927;-91
2022/06/06 09:20:56;;;;;;;;;;;;;;;;;;6198539;23;20018;-91
2022/06/06 09:23:35;;;;;;;;;;;;;;;;;;6195146;23;19930;-92
2022/06/06 09:26:10;;;;;;;;;;;;;;;;;;6198812;23;19919;-92
2022/06/06 09:28:38;;;;;;;;;;;;;;;;;;6195540;23;19923;-92
2022/06/06 09:31:05;;;;;;;;;;;;;;;;;;6175607;23;19920;-92
2022/06/06 09:33:31;;;;;;;;;;;;;;;;;;6173027;23;20241;-90
2022/06/06 09:35:58;;;;;;;;;;;;;;;;;;6173570;23;20336;-91
2022/06/06 09:38:25;;;;;;;;;;;;;;;;;;6170057;23;19920;-92
2022/06/06 09:40:53;;;;;;;;;;;;;;;;;;6174842;23;19920;-91
2022/06/06 09:43:20;;;;;;;;;;;;;;;;;;6173988;23;20678;-91
2022/06/06 09:45:50;;;;;;;;;;;;;;;;;;6168892;23;19920;-91
2022/06/06 09:48:17;;;;;;;;;;;;;;;;;;6171660;23;19944;-91
2022/06/06 09:50:43;;;;;;;;;;;;;;;;;;6201113;23;19923;-92
2022/06/06 09:53:09;;;;;;;;;;;;;;;;;;6175470;23;19927;-90
2022/06/06 10:01:35;;;;;;;;;;;;;;;;;;6199193;23;19919;-91
2022/06/06 10:04:03;;;;;;;;;;;;;;;;;;6185177;23;19965;-90
2022/06/06 10:06:30;;;;;;;;;;;;;;;;;;6230520;23;19988;-90
2022/06/06 10:09:13;;;;;;;;;;;;;;;;;;6229654;23;20682;-90
2022/06/06 10:11:45;;;;;;;;;;;;;;;;;;6223010;23;20324;-89
2022/06/06 10:14:17;;;;;;;;;;;;;;;;;;6206857;23;19920;-92
2022/06/06 10:16:44;;;;;;;;;;;;;;;;;;6203477;23;20751;-90
2022/06/06 10:19:12;;;;;;;;;;;;;;;;;;6205917;23;19926;-91
2022/06/06 10:21:39;;;;;;;;;;;;;;;;;;6224224;23;19919;-91
2022/06/06 10:24:07;;;;;;;;;;;;;;;;;;6198919;23;19924;-91
2022/06/06 10:26:36;;;;;;;;;;;;;;;;;;6222450;23;19926;-92
2022/06/06 10:29:09;;;;;;;;;;;;;;;;;;6222035;23;19942;-91
2022/06/06 10:31:38;;;;;;;;;;;;;;;;;;6171009;23;19926;-91
2022/06/06 10:34:05;;;;;;;;;;;;;;;;;;6199701;23;19954;-92
2022/06/06 10:36:31;;;;;;;;;;;;;;;;;;6195090;23;19924;-91
2022/06/06 10:38:58;;;;;;;;;;;;;;;;;;6198741;23;20146;-91
2022/06/06 10:41:39;;;;;;;;;;;;;;;;;;6189368;23;20251;-91
2022/06/06 10:44:18;;;;;;;;;;;;;;;;;;6146106;23;19986;-91
2022/06/06 10:46:45;;;;;;;;;;;;;;;;;;6146866;23;19931;-91
2022/06/06 10:49:13;;;;;;;;;;;;;;;;;;6168794;23;20344;-91
2022/06/06 10:51:43;;;;;;;;;;;;;;;;;;6165285;23;19920;-91
2022/06/06 10:54:14;;;;;;;;;;;;;;;;;;6194378;23;20749;-90
2022/06/06 10:56:40;;;;;;;;;;;;;;;;;;6143188;23;20337;-91
2022/06/06 10:59:10;;;;;;;;;;;;;;;;;;6146649;23;20479;-92
2022/06/06 11:01:36;;;;;;;;;;;;;;;;;;6191989;23;19920;-91
2022/06/06 11:04:12;;;;;;;;;;;;;;;;;;6195844;23;19924;-90
2022/06/06 11:06:42;;;;;;;;;;;;;;;;;;6166815;23;19920;-91
2022/06/06 11:09:28;;;;;;;;;;;;;;;;;;6168178;23;19963;-90
2022/06/06 11:11:54;;;;;;;;;;;;;;;;;;6151169;23;19965;-90
2022/06/06 11:14:20;;;;;;;;;;;;;;;;;;6199949;23;19919;-90
2022/06/06 11:16:46;;;;;;;;;;;;;;;;;;6225529;23;19963;-90
2022/06/06 11:19:15;;;;;;;;;;;;;;;;;;6202799;23;19926;-90
2022/06/06 11:21:42;;;;;;;;;;;;;;;;;;6204293;23;19926;-90
2022/06/06 11:24:09;;;;;;;;;;;;;;;;;;6202514;23;19920;-90
2022/06/06 11:26:36;;;;;;;;;;;;;;;;;;6225364;23;20323;-89
2022/06/06 11:29:07;;;;;;;;;;;;;;;;;;6199045;23;19920;-91
2022/06/06 11:31:36;;;;;;;;;;;;;;;;;;6221538;23;19919;-89
2022/06/06 11:34:02;;;;;;;;;;;;;;;;;;6201000;23;19919;-90
2022/06/06 11:36:29;;;;;;;;;;;;;;;;;;6221902;23;19930;-90
2022/06/06 11:39:02;;;;;;;;;;;;;;;;;;6226367;22;19965;-90
2022/06/06 11:41:29;;;;;;;;;;;;;;;;;;6223039;23;19920;-90
2022/06/06 11:43:57;;;;;;;;;;;;;;;;;;6200136;23;20332;-90
2022/06/06 11:46:23;;;;;;;;;;;;;;;;;;6216955;23;19919;-90
2022/06/06 11:48:52;;;;;;;;;;;;;;;;;;6200264;23;20307;-90
2022/06/06 11:51:23;;;;;;;;;;;;;;;;;;6232178;23;19927;-89
2022/06/06 11:53:54;;;;;;;;;;;;;;;;;;6229870;23;19920;-89
2022/06/06 11:56:21;;;;;;;;;;;;;;;;;;6231051;23;19973;-90
2022/06/06 11:58:47;;;;;;;;;;;;;;;;;;6225839;23;19920;-90
2022/06/06 12:01:17;;;;;;;;;;;;;;;;;;6226686;23;20519;-90
2022/06/06 12:03:45;;;;;;;;;;;;;;;;;;6225750;22;19919;-90
2022/06/06 12:06:12;;;;;;;;;;;;;;;;;;6234310;22;19919;-90
2022/06/06 12:08:40;;;;;;;;;;;;;;;;;;6230887;22;19923;-90
2022/06/06 12:11:06;;;;;;;;;;;;;;;;;;6234623;22;20388;-90
2022/06/06 12:13:33;;;;;;;;;;;;;;;;;;6203726;22;19919;-89
2022/06/06 12:16:00;;;;;;;;;;;;;;;;;;6258305;22;19946;-90
2022/06/06 12:18:26;;;;;;;;;;;;;;;;;;6232017;22;20434;-90
2022/06/06 12:20:52;;;;;;;;;;;;;;;;;;6257601;22;19958;-89
2022/06/06 12:23:19;;;;;;;;;;;;;;;;;;6254907;22;20140;-89
2022/06/06 12:25:47;;;;;;;;;;;;;;;;;;6223526;22;19990;-90
2022/06/06 12:28:34;;;;;;;;;;;;;;;;;;6162849;23;20781;-90
2022/06/06 12:31:01;;;;;;;;;;;;;;;;;;6185847;23;19923;-89
2022/06/06 12:33:28;;;;;;;;;;;;;;;;;;6138720;23;20482;-90
2022/06/06 12:35:54;;;;;;;;;;;;;;;;;;6191504;23;19990;-90
2022/06/06 12:38:40;;;;;;;;;;;;;;;;;;6166657;23;19918;-90
2022/06/06 12:41:15;;;;;;;;;;;;;;;;;;6190612;23;19963;-90
2022/06/06 12:43:46;;;;;;;;;;;;;;;;;;6162517;23;19990;-89
2022/06/06 12:46:12;;;;;;;;;;;;;;;;;;6142863;23;19924;-91
2022/06/06 12:48:39;;;;;;;;;;;;;;;;;;6162617;23;19916;-90
2022/06/06 12:51:09;;;;;;;;;;;;;;;;;;6194239;23;19916;-90
2022/06/06 12:53:36;;;;;;;;;;;;;;;;;;6146320;23;20405;-90
2022/06/06 12:56:18;;;;;;;;;;;;;;;;;;6188796;23;20628;-89
2022/06/06 12:59:00;;;;;;;;;;;;;;;;;;6188380;23;19920;-90
2022/06/06 13:01:39;;;;;;;;;;;;;;;;;;6163707;23;19927;-89
2022/06/06 13:04:05;;;;;;;;;;;;;;;;;;6144712;23;19919;-89
2022/06/06 13:06:33;;;;;;;;;;;;;;;;;;6169474;23;20407;-90
2022/06/06 13:09:03;;;;;;;;;;;;;;;;;;6175986;23;19920;-90
2022/06/06 13:11:31;;;;;;;;;;;;;;;;;;6176449;23;20144;-90
2022/06/06 13:13:58;;;;;;;;;;;;;;;;;;6232937;23;19923;-91
2022/06/06 13:16:24;;;;;;;;;;;;;;;;;;6225481;23;19982;-90
2022/06/06 13:18:52;;;;;;;;;;;;;;;;;;6209163;23;19943;-92
2022/06/06 13:21:20;;;;;;;;;;;;;;;;;;6234143;23;20256;-91
2022/06/06 13:23:47;;;;;;;;;;;;;;;;;;6226865;23;20239;-90
2022/06/06 13:26:13;;;;;;;;;;;;;;;;;;6230070;23;20041;-91
2022/06/06 13:28:40;;;;;;;;;;;;;;;;;;6226676;23;19915;-91
2022/06/06 13:31:06;;;;;;;;;;;;;;;;;;6228803;23;19990;-89
2022/06/06 13:33:40;;;;;;;;;;;;;;;;;;6230040;23;19927;-89
2022/06/06 13:36:07;;;;;;;;;;;;;;;;;;6232260;23;19927;-90
2022/06/06 13:38:35;;;;;;;;;;;;;;;;;;6231666;23;20001;-90
2022/06/06 13:41:02;;;;;;;;;;;;;;;;;;6234609;23;19920;-89
2022/06/06 13:43:28;;;;;;;;;;;;;;;;;;6232274;23;19919;-90
2022/06/06 13:45:55;;;;;;;;;;;;;;;;;;6237087;23;19923;-90
2022/06/06 13:48:23;;;;;;;;;;;;;;;;;;6236412;23;19916;-90
2022/06/06 13:51:10;;;;;;;;;;;;;;;;;;6141750;23;19920;-90
2022/06/06 13:53:37;;;;;;;;;;;;;;;;;;6091466;23;19959;-89
2022/06/06 13:56:04;;;;;;;;;;;;;;;;;;6094499;23;19935;-89
2022/06/06 13:58:31;;;;;;;;;;;;;;;;;;6090878;23;19928;-91
2022/06/06 14:00:59;;;;;;;;;;;;;;;;;;6113811;23;20443;-91
2022/06/06 14:03:26;;;;;;;;;;;;;;;;;;6115871;23;19924;-89
2022/06/06 14:05:52;;;;;;;;;;;;;;;;;;6123108;23;19928;-90
2022/06/06 14:08:22;;;;;;;;;;;;;;;;;;6148207;23;19920;-90
2022/06/06 14:11:11;;;;;;;;;;;;;;;;;;6172455;23;19927;-91
2022/06/06 14:13:38;;;;;;;;;;;;;;;;;;6143724;23;19920;-91
2022/06/06 14:16:13;;;;;;;;;;;;;;;;;;6145548;23;20083;-91
2022/06/06 14:18:40;;;;;;;;;;;;;;;;;;6143987;23;19920;-90
2022/06/06 14:21:07;;;;;;;;;;;;;;;;;;6172506;23;19920;-90
2022/06/06 14:23:37;;;;;;;;;;;;;;;;;;6144734;23;19978;-91
2022/06/06 14:26:04;;;;;;;;;;;;;;;;;;6172309;23;20349;-90
2022/06/06 14:28:41;;;;;;;;;;;;;;;;;;6144884;23;20337;-90
2022/06/06 14:31:09;;;;;;;;;;;;;;;;;;6142487;23;20367;-90
2022/06/06 14:33:38;;;;;;;;;;;;;;;;;;6140517;23;19920;-90
2022/06/06 14:36:05;;;;;;;;;;;;;;;;;;6145488;23;19927;-92
2022/06/06 14:38:33;;;;;;;;;;;;;;;;;;6114831;23;19920;-90
2022/06/06 14:41:01;;;;;;;;;;;;;;;;;;6166498;23;20955;-91
2022/06/06 14:43:28;;;;;;;;;;;;;;;;;;6226265;23;20332;-91
2022/06/06 14:45:55;;;;;;;;;;;;;;;;;;6204851;23;19926;-91
2022/06/06 14:48:21;;;;;;;;;;;;;;;;;;6228282;23;19919;-92
2022/06/06 14:50:50;;;;;;;;;;;;;;;;;;6203625;23;19926;-90
2022/06/06 14:53:18;;;;;;;;;;;;;;;;;;6229710;23;19919;-91
2022/06/06 14:55:45;;;;;;;;;;;;;;;;;;6227118;23;19927;-92
2022/06/06 14:58:12;;;;;;;;;;;;;;;;;;6231544;23;19920;-92
2022/06/06 15:00:39;;;;;;;;;;;;;;;;;;6227757;23;19916;-92
2022/06/06 15:03:06;;;;;;;;;;;;;;;;;;6230594;23;19923;-92
2022/06/06 15:05:33;;;;;;;;;;;;;;;;;;6228645;23;19990;-93
2022/06/06 15:08:00;;;;;;;;;;;;;;;;;;6206272;23;19955;-91
2022/06/06 15:10:27;;;;;;;;;;;;;;;;;;6230176;23;19950;-93
2022/06/06 15:12:55;;;;;;;;;;;;;;;;;;6229433;23;20279;-92
2022/06/06 15:15:37;;;;;;;;;;;;;;;;;;6233673;23;19927;-93
2022/06/06 15:18:04;;;;;;;;;;;;;;;;;;6234789;23;19915;-92
2022/06/06 15:20:48;;;;;;;;;;;;;;;;;;6232305;23;19946;-92
2022/06/06 15:23:16;;;;;;;;;;;;;;;;;;6230582;23;20352;-92
2022/06/06 15:25:42;;;;;;;;;;;;;;;;;;6229464;23;20375;-94
2022/06/06 15:28:15;;;;;;;;;;;;;;;;;;6230600;23;19923;-92
2022/06/06 15:30:42;;;;;;;;;;;;;;;;;;6179798;23;20349;-93
2022/06/06 15:33:10;;;;;;;;;;;;;;;;;;6231425;23;19957;-91
2022/06/06 15:35:37;;;;;;;;;;;;;;;;;;6204338;23;19924;-92
2022/06/06 15:38:04;;;;;;;;;;;;;;;;;;6231165;23;19965;-92
2022/06/06 15:40:30;;;;;;;;;;;;;;;;;;6230756;23;19924;-92
2022/06/06 15:42:57;;;;;;;;;;;;;;;;;;6207215;23;19966;-92
2022/06/06 15:45:23;;;;;;;;;;;;;;;;;;6204124;23;20410;-91
2022/06/06 15:47:51;;;;;;;;;;;;;;;;;;6230748;23;19920;-91
2022/06/06 15:50:18;;;;;;;;;;;;;;;;;;6234763;23;19927;-90
2022/06/06 15:52:45;;;;;;;;;;;;;;;;;;6234325;23;19919;-90
2022/06/06 15:55:13;;;;;;;;;;;;;;;;;;6234938;23;20661;-92
2022/06/06 15:57:44;;;;;;;;;;;;;;;;;;6233962;23;19998;-91
2022/06/06 16:00:15;;;;;;;;;;;;;;;;;;6210382;23;19965;-90
2022/06/06 16:02:46;;;;;;;;;;;;;;;;;;6232637;23;20140;-91
2022/06/06 16:05:16;;;;;;;;;;;;;;;;;;6233414;23;19923;-92
2022/06/06 16:07:43;;;;;;;;;;;;;;;;;;6206534;23;19973;-91
2022/06/06 16:10:11;;;;;;;;;;;;;;;;;;6209170;23;19935;-91
2022/06/06 16:12:38;;;;;;;;;;;;;;;;;;6205174;23;20263;-92
2022/06/06 16:15:04;;;;;;;;;;;;;;;;;;6235094;23;19923;-92
2022/06/06 16:17:32;;;;;;;;;;;;;;;;;;6182441;23;20264;-92
2022/06/06 16:19:59;;;;;;;;;;;;;;;;;;6208489;23;19981;-92
2022/06/06 16:22:30;;;;;;;;;;;;;;;;;;6227583;23;19920;-94
2022/06/06 16:24:58;;;;;;;;;;;;;;;;;;6229669;23;19919;-91
2022/06/06 16:27:26;;;;;;;;;;;;;;;;;;6227730;23;19919;-92
2022/06/06 16:30:07;;;;;;;;;;;;;;;;;;6231052;23;20268;-91
2022/06/06 16:32:41;;;;;;;;;;;;;;;;;;6224183;22;20269;-92
2022/06/06 16:35:17;;;;;;;;;;;;;;;;;;6205739;23;19919;-92
2022/06/06 16:37:43;;;;;;;;;;;;;;;;;;6230177;23;19947;-93
2022/06/06 16:40:09;;;;;;;;;;;;;;;;;;6207202;23;19926;-92
2022/06/06 16:48:14;;;;;;;;;;;;;;;;;;6233314;23;20017;-90
2022/06/06 16:50:40;;;;;;;;;;;;;;;;;;6233996;23;19916;-92
2022/06/06 16:53:07;;;;;;;;;;;;;;;;;;6233642;23;20007;-91
2022/06/06 16:55:35;;;;;;;;;;;;;;;;;;6230469;23;19919;-93
2022/06/06 16:58:03;;;;;;;;;;;;;;;;;;6234042;23;19926;-92
2022/06/06 17:00:29;;;;;;;;;;;;;;;;;;6230230;23;19982;-92
2022/06/06 17:02:56;;;;;;;;;;;;;;;;;;6212957;23;19923;-91
2022/06/06 17:05:23;;;;;;;;;;;;;;;;;;6225909;23;19931;-92
2022/06/06 17:07:50;;;;;;;;;;;;;;;;;;6181134;23;19927;-92
2022/06/06 17:10:17;;;;;;;;;;;;;;;;;;6183790;23;19920;-93
2022/06/06 17:12:52;;;;;;;;;;;;;;;;;;6232214;23;19919;-93
2022/06/06 17:15:18;;;;;;;;;;;;;;;;;;6207982;23;19919;-90
2022/06/06 17:17:45;;;;;;;;;;;;;;;;;;6228848;23;20006;-92
2022/06/06 17:20:11;;;;;;;;;;;;;;;;;;6235961;23;19920;-91
2022/06/06 17:22:39;;;;;;;;;;;;;;;;;;6230037;23;19995;-92